Time;durP1;ratioP1;P1;durP2;ratioP2;P2;SDS_P1;SDS_P2;PMS_P1;PMS_P2;Temp;Humidity;BMP_temperature;BMP_pressure;BME280_temperature;BME280_humidity;BME280_pressure;Samples;Min_cycle;Max_cycle;Signal;HPM_P1;HPM_P2
2023/03/24 00:00:10;;;;;;;0.70;0.70;;;15.00;99.90;;;;;;5059312;28;20674;-61
2023/03/24 00:02:40;;;;;;;0.80;0.80;;;15.00;99.90;;;;;;5066007;28;20227;-61
2023/03/24 00:05:09;;;;;;;0.80;0.80;;;15.10;99.90;;;;;;5072753;28;20239;-60
2023/03/24 00:07:37;;;;;;;0.80;0.80;;;15.10;99.90;;;;;;5071724;28;20693;-61
2023/03/24 00:10:08;;;;;;;0.70;0.70;;;15.10;99.90;;;;;;5071153;28;20208;-60
2023/03/24 00:12:37;;;;;;;0.80;0.80;;;15.10;99.90;;;;;;5071605;28;20284;-61
2023/03/24 00:15:06;;;;;;;0.90;0.90;;;15.10;99.90;;;;;;5071574;28;20218;-63
2023/03/24 00:17:34;;;;;;;0.90;0.90;;;15.00;99.90;;;;;;5071059;28;20245;-60
2023/03/24 00:20:06;;;;;;;0.60;0.60;;;15.00;99.90;;;;;;5071182;28;20286;-61
2023/03/24 00:22:33;;;;;;;0.70;0.70;;;15.00;99.90;;;;;;5071269;28;20500;-60
2023/03/24 00:25:02;;;;;;;0.80;0.80;;;15.00;99.90;;;;;;5071195;28;20261;-61
2023/03/24 00:27:35;;;;;;;0.80;0.80;;;15.10;99.90;;;;;;5071236;28;20265;-60
2023/03/24 00:30:04;;;;;;;0.70;0.70;;;15.10;99.90;;;;;;5070903;28;20302;-62
2023/03/24 00:32:31;;;;;;;0.90;0.70;;;15.00;99.90;;;;;;5071282;28;20227;-60
2023/03/24 00:34:59;;;;;;;0.90;0.90;;;15.00;99.90;;;;;;5071234;28;20319;-60
2023/03/24 00:37:26;;;;;;;0.73;0.73;;;15.00;99.90;;;;;;5071083;28;20206;-63
2023/03/24 00:39:53;;;;;;;0.73;0.73;;;14.90;99.90;;;;;;5070812;28;20239;-61
2023/03/24 00:42:21;;;;;;;0.52;0.52;;;14.90;99.90;;;;;;5072727;28;20302;-61
2023/03/24 00:44:49;;;;;;;0.70;0.70;;;14.90;99.90;;;;;;5071237;28;20214;-61
2023/03/24 00:47:16;;;;;;;0.80;0.80;;;14.90;99.90;;;;;;5070973;28;20297;-61
2023/03/24 00:49:44;;;;;;;0.73;0.73;;;14.90;99.90;;;;;;5070072;28;20210;-59
2023/03/24 00:52:13;;;;;;;0.90;0.90;;;14.90;99.90;;;;;;5070831;28;20215;-62
2023/03/24 00:54:40;;;;;;;0.70;0.70;;;14.90;99.90;;;;;;5071045;28;20249;-62
2023/03/24 00:57:11;;;;;;;0.65;0.65;;;14.80;99.90;;;;;;5070412;28;20310;-59
2023/03/24 00:59:41;;;;;;;0.73;0.73;;;14.80;99.90;;;;;;5070307;28;20242;-63
2023/03/24 01:02:11;;;;;;;0.80;0.75;;;14.80;99.90;;;;;;5070843;28;20230;-60
2023/03/24 01:04:39;;;;;;;0.70;0.70;;;14.80;99.90;;;;;;5071567;28;20264;-60
2023/03/24 01:07:09;;;;;;;0.60;0.60;;;14.80;99.90;;;;;;5070699;28;20302;-61
2023/03/24 01:09:37;;;;;;;0.90;0.90;;;14.80;99.90;;;;;;5069958;28;20258;-62
2023/03/24 01:12:05;;;;;;;0.60;0.60;;;14.80;99.90;;;;;;5071002;28;20631;-62
2023/03/24 01:14:33;;;;;;;0.65;0.65;;;14.80;99.90;;;;;;5070530;28;20260;-60
2023/03/24 01:17:00;;;;;;;0.63;0.63;;;14.80;99.90;;;;;;5070245;28;20226;-62
2023/03/24 01:19:28;;;;;;;0.80;0.80;;;14.80;99.90;;;;;;5069894;28;20631;-63
2023/03/24 01:21:55;;;;;;;0.80;0.80;;;14.70;99.90;;;;;;5069783;28;20811;-62
2023/03/24 01:24:24;;;;;;;0.80;0.80;;;14.70;99.90;;;;;;5070360;28;20286;-60
2023/03/24 01:26:51;;;;;;;0.53;0.53;;;14.70;99.90;;;;;;5069676;28;20219;-62
2023/03/24 01:29:18;;;;;;;0.73;0.73;;;14.70;99.90;;;;;;5070074;28;20302;-62
2023/03/24 01:31:45;;;;;;;0.60;0.60;;;14.70;99.90;;;;;;5071019;28;20257;-61
2023/03/24 01:34:12;;;;;;;0.60;0.60;;;14.70;99.90;;;;;;5071148;28;20215;-61
2023/03/24 01:36:40;;;;;;;0.98;0.90;;;14.70;99.90;;;;;;5070264;28;20290;-61
2023/03/24 01:39:07;;;;;;;0.70;0.70;;;14.80;99.90;;;;;;5069287;28;20741;-61
2023/03/24 01:41:36;;;;;;;0.70;0.70;;;14.80;99.90;;;;;;5069758;28;20226;-64
2023/03/24 01:44:26;;;;;;;0.57;0.57;;;14.90;99.90;;;;;;5069952;28;20681;-61
2023/03/24 01:46:53;;;;;;;0.65;0.65;;;14.90;99.90;;;;;;5069260;28;20215;-62
2023/03/24 01:49:21;;;;;;;0.60;0.60;;;15.00;99.90;;;;;;5069694;28;21295;-61
2023/03/24 01:51:52;;;;;;;0.70;0.70;;;15.00;99.90;;;;;;5069588;28;20259;-61
2023/03/24 01:54:23;;;;;;;0.52;0.52;;;15.10;99.90;;;;;;5069909;28;20247;-61
2023/03/24 01:56:54;;;;;;;0.50;0.50;;;15.10;99.90;;;;;;5069697;28;20290;-61
2023/03/24 01:59:26;;;;;;;0.68;0.68;;;15.10;99.90;;;;;;5069128;28;20294;-62
2023/03/24 02:02:02;;;;;;;0.60;0.60;;;15.20;99.90;;;;;;5069979;28;20223;-63
2023/03/24 02:04:30;;;;;;;0.70;0.70;;;15.30;99.90;;;;;;5069873;28;20203;-63
2023/03/24 02:07:02;;;;;;;0.60;0.60;;;15.30;99.90;;;;;;5069790;28;20262;-63
2023/03/24 02:09:29;;;;;;;0.65;0.65;;;15.40;99.90;;;;;;5068709;28;20943;-61
2023/03/24 02:11:57;;;;;;;0.70;0.70;;;15.50;99.90;;;;;;5070077;28;20276;-62
2023/03/24 02:14:24;;;;;;;0.68;0.68;;;15.40;99.90;;;;;;5070135;28;20250;-59
2023/03/24 02:17:25;;;;;;;0.80;0.80;;;15.40;99.90;;;;;;5069320;28;20196;-60
2023/03/24 02:20:20;;;;;;;0.70;0.70;;;15.50;99.90;;;;;;5070000;28;20245;-63
2023/03/24 02:23:23;;;;;;;0.60;0.60;;;15.40;99.90;;;;;;5070838;28;20219;-62
2023/03/24 02:26:26;;;;;;;0.60;0.60;;;15.40;99.90;;;;;;5070595;28;20313;-63
2023/03/24 02:29:10;;;;;;;1.40;0.70;;;15.40;99.90;;;;;;5069194;28;20206;-61
2023/03/24 02:32:04;;;;;;;0.50;0.50;;;15.30;99.90;;;;;;5069583;28;20227;-62
2023/03/24 02:34:55;;;;;;;0.68;0.68;;;15.30;99.90;;;;;;5049367;28;20278;-63
2023/03/24 02:37:37;;;;;;;0.70;0.70;;;15.30;99.90;;;;;;5053910;28;20274;-61
2023/03/24 02:40:19;;;;;;;0.70;0.70;;;15.20;99.90;;;;;;5072624;28;20759;-59
2023/03/24 02:43:00;;;;;;;0.80;0.80;;;15.20;99.90;;;;;;5073485;28;20685;-61
2023/03/24 02:45:35;;;;;;;0.70;0.70;;;15.10;99.90;;;;;;5073268;28;20627;-61
2023/03/24 02:48:23;;;;;;;0.60;0.60;;;15.00;99.90;;;;;;5057744;28;20239;-62
2023/03/24 02:50:55;;;;;;;0.50;0.50;;;15.00;99.90;;;;;;5052523;28;20739;-62
2023/03/24 02:53:30;;;;;;;0.80;0.80;;;15.00;99.90;;;;;;5065224;28;20693;-61
2023/03/24 02:56:03;;;;;;;0.55;0.55;;;15.00;99.90;;;;;;5073286;28;20211;-62
2023/03/24 02:58:37;;;;;;;0.63;0.63;;;15.00;99.90;;;;;;5072922;28;20255;-63
2023/03/24 03:01:08;;;;;;;0.80;0.60;;;14.90;99.90;;;;;;5072423;28;20239;-61
2023/03/24 03:03:40;;;;;;;0.70;0.70;;;14.90;99.90;;;;;;5073404;28;20230;-59
2023/03/24 03:06:12;;;;;;;0.80;0.80;;;14.90;99.90;;;;;;5073215;28;20674;-61
2023/03/24 03:08:41;;;;;;;0.80;0.80;;;14.90;99.90;;;;;;5072911;28;20203;-61
2023/03/24 03:11:14;;;;;;;0.82;0.82;;;14.90;99.90;;;;;;5073848;28;20290;-62
2023/03/24 03:13:44;;;;;;;0.73;0.73;;;14.90;99.90;;;;;;5074071;28;20195;-62
2023/03/24 03:16:17;;;;;;;0.75;0.75;;;14.90;99.90;;;;;;5073461;28;20283;-64
2023/03/24 03:18:49;;;;;;;0.50;0.50;;;14.90;99.90;;;;;;5072729;28;20231;-62
2023/03/24 03:21:20;;;;;;;0.70;0.70;;;15.00;99.90;;;;;;5072151;28;20252;-60
2023/03/24 03:23:51;;;;;;;0.57;0.57;;;15.50;99.90;;;;;;5072634;28;20230;-62
2023/03/24 03:26:22;;;;;;;0.50;0.50;;;15.90;99.90;;;;;;5072525;28;20387;-60
2023/03/24 03:28:56;;;;;;;0.60;0.60;;;16.10;99.90;;;;;;5072849;28;20209;-62
2023/03/24 03:31:28;;;;;;;0.70;0.70;;;16.40;99.90;;;;;;5072225;28;20728;-61
2023/03/24 03:34:03;;;;;;;0.60;0.60;;;16.60;99.90;;;;;;5072393;28;20558;-61
2023/03/24 03:36:33;;;;;;;0.93;0.93;;;16.70;99.90;;;;;;5072051;28;20233;-59
2023/03/24 03:39:07;;;;;;;0.52;0.52;;;16.80;99.90;;;;;;5072287;28;20247;-60
2023/03/24 03:41:35;;;;;;;0.60;0.60;;;16.80;99.90;;;;;;5072504;28;20310;-61
2023/03/24 03:44:02;;;;;;;0.60;0.60;;;16.80;99.90;;;;;;5074156;28;20277;-61
2023/03/24 03:46:29;;;;;;;0.50;0.50;;;16.80;99.90;;;;;;5072400;28;20306;-62
2023/03/24 03:48:56;;;;;;;0.55;0.55;;;16.70;99.90;;;;;;5072069;28;20678;-62
2023/03/24 03:51:24;;;;;;;0.40;0.40;;;16.70;99.90;;;;;;5070743;28;20263;-61
2023/03/24 03:53:54;;;;;;;0.50;0.50;;;16.80;99.90;;;;;;5072316;28;20253;-61
2023/03/24 03:56:26;;;;;;;0.60;0.60;;;17.00;99.90;;;;;;5071934;28;20204;-61
2023/03/24 03:58:55;;;;;;;0.50;0.50;;;17.10;99.90;;;;;;5072227;28;20319;-62
2023/03/24 04:01:26;;;;;;;0.30;0.30;;;17.20;99.90;;;;;;5070802;28;20591;-62
2023/03/24 04:04:19;;;;;;;0.60;0.60;;;17.20;99.90;;;;;;5072745;28;20581;-60
2023/03/24 04:06:56;;;;;;;0.57;0.57;;;17.30;99.90;;;;;;5072443;28;20227;-60
2023/03/24 04:09:35;;;;;;;0.60;0.60;;;17.50;99.90;;;;;;5072161;28;20749;-59
2023/03/24 04:12:15;;;;;;;0.63;0.63;;;17.60;99.90;;;;;;5071724;28;20269;-62
2023/03/24 04:15:12;;;;;;;0.60;0.60;;;17.60;99.90;;;;;;5072126;28;20215;-62
2023/03/24 04:17:55;;;;;;;0.60;0.60;;;17.60;99.90;;;;;;5071866;28;20235;-62
2023/03/24 04:20:31;;;;;;;0.70;0.70;;;17.60;99.90;;;;;;5070710;28;20242;-61
2023/03/24 04:23:08;;;;;;;0.50;0.50;;;17.60;99.90;;;;;;5071540;28;20223;-61
2023/03/24 04:25:43;;;;;;;0.85;0.77;;;17.60;99.90;;;;;;5071732;28;20290;-62
2023/03/24 04:28:25;;;;;;;1.20;1.10;;;17.40;99.90;;;;;;5071169;28;20254;-61
2023/03/24 04:31:00;;;;;;;0.70;0.70;;;17.20;99.90;;;;;;5070505;28;20256;-61
2023/03/24 04:33:33;;;;;;;0.85;0.85;;;16.80;99.90;;;;;;5071851;28;20230;-61
2023/03/24 04:36:05;;;;;;;0.82;0.82;;;16.50;99.90;;;;;;5071494;28;20259;-63
2023/03/24 04:38:35;;;;;;;0.98;0.80;;;16.30;99.90;;;;;;5071217;28;20199;-60
2023/03/24 04:41:04;;;;;;;0.90;0.90;;;16.10;99.90;;;;;;5069959;28;20326;-62
2023/03/24 04:43:35;;;;;;;0.73;0.73;;;16.00;99.90;;;;;;5070815;28;20191;-62
2023/03/24 04:46:04;;;;;;;0.90;0.90;;;15.80;99.90;;;;;;5070988;28;20322;-60
2023/03/24 04:48:31;;;;;;;0.93;0.88;;;15.80;99.90;;;;;;5071765;28;20227;-61
2023/03/24 04:51:00;;;;;;;1.27;0.93;;;15.70;99.90;;;;;;5073576;28;20203;-62
2023/03/24 04:53:28;;;;;;;1.00;1.00;;;15.60;99.90;;;;;;5073237;28;20196;-63
2023/03/24 04:56:02;;;;;;;1.17;1.17;;;15.50;99.90;;;;;;5072125;28;20207;-61
2023/03/24 04:58:29;;;;;;;0.90;0.90;;;15.50;99.90;;;;;;5070928;28;20217;-61
2023/03/24 05:00:57;;;;;;;0.85;0.85;;;15.40;99.90;;;;;;5070426;28;20207;-62
2023/03/24 05:03:25;;;;;;;0.80;0.80;;;15.30;99.90;;;;;;5070730;28;20207;-62
2023/03/24 05:05:52;;;;;;;1.00;1.00;;;15.30;99.90;;;;;;5070638;28;20221;-62
2023/03/24 05:08:20;;;;;;;0.82;0.82;;;15.20;99.90;;;;;;5070558;28;20216;-61
2023/03/24 05:10:47;;;;;;;0.80;0.80;;;15.10;99.90;;;;;;5069014;28;20588;-60
2023/03/24 05:13:15;;;;;;;0.90;0.90;;;15.00;99.90;;;;;;5072446;28;20222;-63
2023/03/24 05:15:41;;;;;;;0.90;0.90;;;15.00;99.90;;;;;;5073411;28;20918;-62
2023/03/24 05:18:08;;;;;;;0.80;0.80;;;14.90;99.90;;;;;;5070513;28;20230;-60
2023/03/24 05:20:36;;;;;;;0.90;0.90;;;14.90;99.90;;;;;;5070092;28;20623;-61
2023/03/24 05:23:03;;;;;;;1.10;1.00;;;14.80;99.90;;;;;;5070500;28;20219;-61
2023/03/24 05:25:30;;;;;;;1.10;1.10;;;14.80;99.90;;;;;;5070962;28;20348;-63
2023/03/24 05:27:57;;;;;;;1.20;1.20;;;14.70;99.90;;;;;;5070116;28;20223;-62
2023/03/24 05:30:24;;;;;;;1.20;1.20;;;14.70;99.90;;;;;;5049893;28;21002;-63
2023/03/24 05:32:51;;;;;;;1.20;1.20;;;14.60;99.90;;;;;;5050563;28;20323;-62
2023/03/24 05:35:18;;;;;;;1.33;1.23;;;14.50;99.90;;;;;;5070019;28;20222;-61
2023/03/24 05:37:46;;;;;;;1.30;1.30;;;14.50;99.90;;;;;;5070242;28;20661;-62
2023/03/24 05:40:14;;;;;;;1.00;1.00;;;14.50;99.90;;;;;;5069440;28;20226;-63
2023/03/24 05:42:41;;;;;;;0.90;0.90;;;14.60;99.90;;;;;;5063423;28;20227;-63
2023/03/24 05:45:10;;;;;;;1.10;1.10;;;14.50;99.90;;;;;;5063720;28;20230;-62
2023/03/24 05:47:38;;;;;;;0.88;0.88;;;14.50;99.90;;;;;;5069966;28;20231;-62
2023/03/24 05:50:05;;;;;;;1.10;1.10;;;14.50;99.90;;;;;;5069146;28;20229;-62
2023/03/24 05:52:32;;;;;;;1.20;1.10;;;14.40;99.90;;;;;;5069905;28;20272;-63
2023/03/24 05:55:00;;;;;;;0.90;0.90;;;14.40;99.90;;;;;;5069263;28;20282;-62
2023/03/24 05:57:29;;;;;;;0.82;0.82;;;14.40;99.90;;;;;;5069116;28;20576;-63
2023/03/24 05:59:56;;;;;;;1.00;1.00;;;14.40;99.90;;;;;;5068404;28;20200;-63
2023/03/24 06:02:23;;;;;;;1.10;1.10;;;14.30;99.90;;;;;;5069299;28;20223;-64
2023/03/24 06:04:50;;;;;;;1.30;1.30;;;14.30;99.90;;;;;;5070497;28;20585;-64
2023/03/24 06:07:18;;;;;;;1.20;1.10;;;14.30;99.90;;;;;;5054658;28;20634;-62
2023/03/24 06:09:49;;;;;;;1.20;1.10;;;14.20;99.90;;;;;;5061977;28;20215;-62
2023/03/24 06:12:20;;;;;;;1.33;1.23;;;14.20;99.90;;;;;;5069680;28;20233;-63
2023/03/24 06:14:47;;;;;;;1.10;1.10;;;14.10;99.90;;;;;;5069566;28;20218;-63
2023/03/24 06:17:14;;;;;;;1.42;1.33;;;14.10;99.90;;;;;;5065835;28;20203;-63
2023/03/24 06:19:48;;;;;;;1.23;1.23;;;14.10;99.90;;;;;;5053287;28;20210;-64
2023/03/24 06:22:16;;;;;;;1.07;1.07;;;14.10;99.90;;;;;;5065376;28;20223;-62
2023/03/24 06:24:43;;;;;;;1.00;1.00;;;14.00;99.90;;;;;;5059995;28;20204;-63
2023/03/24 06:27:10;;;;;;;1.10;1.10;;;14.10;99.90;;;;;;5048945;28;20224;-63
2023/03/24 06:29:42;;;;;;;0.93;0.93;;;14.10;99.90;;;;;;5067449;28;20282;-63
2023/03/24 06:32:09;;;;;;;0.90;0.90;;;14.10;99.90;;;;;;5077599;28;20223;-63
2023/03/24 06:34:37;;;;;;;1.08;1.08;;;14.10;99.90;;;;;;5051217;28;20572;-64
2023/03/24 06:37:04;;;;;;;1.13;1.10;;;14.00;99.90;;;;;;5068198;28;20535;-62
2023/03/24 06:39:31;;;;;;;1.00;1.00;;;14.00;99.90;;;;;;5061970;28;20240;-63
2023/03/24 06:41:58;;;;;;;1.00;1.00;;;14.00;99.90;;;;;;5067498;28;20744;-63
2023/03/24 06:44:26;;;;;;;0.80;0.80;;;14.00;99.90;;;;;;5068640;28;20203;-64
2023/03/24 06:46:54;;;;;;;1.00;1.00;;;14.10;99.90;;;;;;5070906;28;20207;-62
2023/03/24 06:49:20;;;;;;;1.02;1.02;;;14.10;99.90;;;;;;5069625;28;20203;-62
2023/03/24 06:51:47;;;;;;;0.90;0.90;;;14.10;99.90;;;;;;5070648;28;20231;-63
2023/03/24 06:54:14;;;;;;;0.93;0.93;;;14.10;99.90;;;;;;5071025;28;20670;-63
2023/03/24 06:56:41;;;;;;;0.90;0.90;;;14.10;99.90;;;;;;5071310;28;20245;-63
2023/03/24 06:59:09;;;;;;;0.90;0.90;;;14.10;99.90;;;;;;5072282;28;20219;-63
2023/03/24 07:01:37;;;;;;;0.80;0.80;;;14.10;99.90;;;;;;5080306;28;20243;-63
2023/03/24 07:04:06;;;;;;;1.02;1.02;;;14.20;99.90;;;;;;5086514;28;20211;-63
2023/03/24 07:06:33;;;;;;;0.77;0.77;;;14.10;99.90;;;;;;5087075;28;20299;-64
2023/03/24 07:09:00;;;;;;;0.87;0.87;;;14.20;99.90;;;;;;5086705;28;20314;-64
2023/03/24 07:11:27;;;;;;;0.80;0.80;;;14.20;99.90;;;;;;5085875;28;20223;-64
2023/03/24 07:13:54;;;;;;;0.85;0.85;;;14.20;99.90;;;;;;5071303;28;20575;-62
2023/03/24 07:16:22;;;;;;;0.87;0.87;;;14.20;99.90;;;;;;5069862;28;20208;-63
2023/03/24 07:18:49;;;;;;;0.80;0.80;;;14.10;99.90;;;;;;5070257;28;20195;-63
2023/03/24 07:21:17;;;;;;;0.90;0.90;;;14.20;99.90;;;;;;5070188;28;20207;-63
2023/03/24 07:23:44;;;;;;;0.87;0.80;;;14.20;99.90;;;;;;5071091;28;20203;-62
2023/03/24 07:26:11;;;;;;;0.80;0.80;;;14.20;99.90;;;;;;5073309;28;20211;-62
2023/03/24 07:28:38;;;;;;;0.90;0.90;;;14.20;99.90;;;;;;5073159;28;20783;-64
2023/03/24 07:31:09;;;;;;;1.00;1.00;;;14.20;99.90;;;;;;5072579;28;20213;-64
2023/03/24 07:33:36;;;;;;;1.00;1.00;;;14.20;99.90;;;;;;5073354;28;20191;-63
2023/03/24 07:36:03;;;;;;;1.00;1.00;;;14.20;99.90;;;;;;5072643;28;20203;-62
2023/03/24 07:38:33;;;;;;;0.70;0.70;;;14.20;99.90;;;;;;5073701;28;20200;-63
2023/03/24 07:41:00;;;;;;;1.00;1.00;;;14.20;99.90;;;;;;5041057;28;20738;-64
2023/03/24 07:43:27;;;;;;;0.90;0.90;;;14.20;99.90;;;;;;5053686;28;20231;-63
2023/03/24 07:45:53;;;;;;;1.00;1.00;;;14.20;99.90;;;;;;5053326;28;20214;-65
2023/03/24 07:48:20;;;;;;;0.90;0.90;;;14.20;99.90;;;;;;5053085;28;20224;-64
2023/03/24 07:50:47;;;;;;;1.10;1.10;;;14.20;99.90;;;;;;5051615;28;20580;-64
2023/03/24 07:53:18;;;;;;;0.80;0.80;;;14.20;99.90;;;;;;5052735;28;20234;-64
2023/03/24 07:55:46;;;;;;;1.00;1.00;;;14.20;99.90;;;;;;5059624;28;20281;-64
2023/03/24 07:58:13;;;;;;;1.00;1.00;;;14.20;99.90;;;;;;5072549;28;20203;-63
2023/03/24 08:00:41;;;;;;;0.90;0.90;;;14.20;99.90;;;;;;5071877;28;20203;-64
2023/03/24 08:03:12;;;;;;;1.13;1.07;;;14.30;99.90;;;;;;5071740;28;20227;-63
2023/03/24 08:05:42;;;;;;;0.90;0.90;;;14.30;99.90;;;;;;5073584;28;20214;-63
2023/03/24 08:08:09;;;;;;;1.08;0.98;;;14.30;99.90;;;;;;5079284;28;20223;-62
2023/03/24 08:10:36;;;;;;;0.82;0.82;;;14.40;99.90;;;;;;5080713;28;20199;-62
2023/03/24 08:13:04;;;;;;;1.00;1.00;;;14.40;99.90;;;;;;5077731;28;20227;-61
2023/03/24 08:15:31;;;;;;;1.00;1.00;;;14.40;99.90;;;;;;5072635;28;20295;-63
2023/03/24 08:17:58;;;;;;;1.00;1.00;;;14.40;99.90;;;;;;5072279;28;20211;-63
2023/03/24 08:20:26;;;;;;;0.95;0.95;;;14.50;99.90;;;;;;5072026;28;20217;-64
2023/03/24 08:22:53;;;;;;;0.95;0.95;;;14.40;99.90;;;;;;5071588;28;20298;-65
2023/03/24 08:25:21;;;;;;;0.90;0.90;;;14.50;99.90;;;;;;5072831;28;20199;-63
2023/03/24 08:27:48;;;;;;;0.80;0.80;;;14.50;99.90;;;;;;5073218;28;20700;-63
2023/03/24 08:30:18;;;;;;;1.15;1.15;;;14.50;99.90;;;;;;5072368;28;20233;-62
2023/03/24 08:32:47;;;;;;;1.08;1.08;;;14.70;99.90;;;;;;5072858;28;20623;-62
2023/03/24 08:35:15;;;;;;;0.90;0.90;;;14.50;99.90;;;;;;5072516;28;20207;-63
2023/03/24 08:37:44;;;;;;;0.80;0.80;;;14.50;99.90;;;;;;5072694;28;20587;-62
2023/03/24 08:40:16;;;;;;;0.90;0.90;;;14.60;99.90;;;;;;5072169;28;20302;-61
2023/03/24 08:42:42;;;;;;;0.90;0.90;;;14.60;99.90;;;;;;5072113;28;20227;-62
2023/03/24 08:45:12;;;;;;;1.05;1.05;;;14.70;99.90;;;;;;5071834;28;20211;-63
2023/03/24 08:47:40;;;;;;;1.02;1.02;;;14.70;99.90;;;;;;5072789;28;20207;-63
2023/03/24 08:50:09;;;;;;;0.90;0.90;;;14.70;99.90;;;;;;5072645;28;20203;-62
2023/03/24 08:52:35;;;;;;;0.90;0.90;;;14.80;99.90;;;;;;5077184;28;20231;-63
2023/03/24 08:55:03;;;;;;;0.93;0.93;;;14.80;99.90;;;;;;5080368;28;20240;-63
2023/03/24 08:57:30;;;;;;;0.90;0.90;;;14.90;99.90;;;;;;5076848;28;20213;-63
2023/03/24 08:59:57;;;;;;;0.90;0.90;;;14.90;99.90;;;;;;5072280;28;20702;-63
2023/03/24 09:02:24;;;;;;;0.90;0.90;;;14.90;99.90;;;;;;5072791;28;20223;-62
2023/03/24 09:04:54;;;;;;;0.80;0.80;;;15.00;99.90;;;;;;5073376;28;20348;-63
2023/03/24 09:07:21;;;;;;;1.02;0.93;;;15.00;99.90;;;;;;5072074;28;20214;-62
2023/03/24 09:09:48;;;;;;;0.77;0.60;;;15.00;99.90;;;;;;5072326;28;20234;-63
2023/03/24 09:12:15;;;;;;;1.00;1.00;;;15.00;99.90;;;;;;5072438;28;20230;-63
2023/03/24 09:14:42;;;;;;;0.57;0.57;;;15.00;99.90;;;;;;5072327;28;20207;-62
2023/03/24 09:17:09;;;;;;;0.70;0.70;;;15.10;99.90;;;;;;5071675;28;20464;-62
2023/03/24 09:19:36;;;;;;;0.60;0.60;;;15.10;99.90;;;;;;5071701;28;20803;-61
2023/03/24 09:22:05;;;;;;;0.75;0.75;;;15.10;99.90;;;;;;5072042;28;20232;-62
2023/03/24 09:24:32;;;;;;;0.90;0.90;;;15.10;99.90;;;;;;5071818;28;20207;-62
2023/03/24 09:26:59;;;;;;;0.70;0.70;;;15.10;99.90;;;;;;5071257;28;20207;-63
2023/03/24 09:29:26;;;;;;;0.80;0.80;;;15.10;99.90;;;;;;5071220;28;20729;-63
2023/03/24 09:31:53;;;;;;;0.60;0.60;;;15.10;99.90;;;;;;5071478;28;20314;-62
2023/03/24 09:34:20;;;;;;;0.80;0.80;;;15.10;99.90;;;;;;5071256;28;20211;-63
2023/03/24 09:36:47;;;;;;;1.00;1.00;;;15.10;99.90;;;;;;5071630;28;20694;-61
2023/03/24 09:39:16;;;;;;;0.75;0.75;;;15.10;99.90;;;;;;5072186;28;20218;-62
2023/03/24 09:41:46;;;;;;;0.70;0.70;;;15.20;99.90;;;;;;5076270;28;20238;-63
2023/03/24 09:44:23;;;;;;;0.80;0.80;;;15.20;99.90;;;;;;5074112;28;20202;-62
2023/03/24 09:46:53;;;;;;;0.82;0.82;;;15.20;99.90;;;;;;5075330;28;20202;-63
2023/03/24 09:49:24;;;;;;;0.63;0.63;;;15.20;99.90;;;;;;5078349;28;20207;-62
2023/03/24 09:51:55;;;;;;;0.75;0.75;;;15.20;99.90;;;;;;5078659;28;20219;-62
2023/03/24 09:54:30;;;;;;;0.82;0.82;;;15.30;99.90;;;;;;5075863;28;20738;-63
2023/03/24 09:56:58;;;;;;;0.80;0.80;;;15.30;99.90;;;;;;5074983;28;20230;-64
2023/03/24 09:59:32;;;;;;;0.70;0.70;;;15.40;99.90;;;;;;5071169;28;20229;-62
2023/03/24 10:01:59;;;;;;;0.85;0.70;;;15.40;99.90;;;;;;5072128;28;20712;-63
2023/03/24 10:04:30;;;;;;;0.68;0.65;;;15.50;99.90;;;;;;5071851;28;20290;-64
2023/03/24 10:07:01;;;;;;;0.50;0.50;;;15.50;99.90;;;;;;5071515;28;20282;-62
2023/03/24 10:09:31;;;;;;;0.63;0.63;;;15.50;99.90;;;;;;5070665;28;20226;-63
2023/03/24 10:12:20;;;;;;;0.68;0.68;;;15.50;99.90;;;;;;5071505;28;20238;-63
2023/03/24 10:14:57;;;;;;;0.68;0.68;;;15.50;99.90;;;;;;5071655;28;20207;-63
2023/03/24 10:17:32;;;;;;;0.60;0.60;;;15.50;99.90;;;;;;5070090;28;20213;-63
2023/03/24 10:20:06;;;;;;;0.60;0.60;;;15.60;99.90;;;;;;5069987;28;20737;-62
2023/03/24 10:22:40;;;;;;;1.00;0.70;;;15.50;99.90;;;;;;5071046;28;20226;-63
2023/03/24 10:25:18;;;;;;;0.70;0.70;;;15.50;99.90;;;;;;5071169;28;20673;-61
2023/03/24 10:27:48;;;;;;;0.80;0.80;;;15.40;99.90;;;;;;5065440;28;20202;-63
2023/03/24 10:30:19;;;;;;;0.60;0.60;;;15.40;99.90;;;;;;5082506;28;20311;-62
2023/03/24 10:32:46;;;;;;;0.73;0.73;;;15.40;99.90;;;;;;5068760;28;20212;-61
2023/03/24 10:35:21;;;;;;;0.60;0.60;;;15.40;99.90;;;;;;5069775;28;20290;-63
2023/03/24 10:37:48;;;;;;;0.70;0.70;;;15.50;99.90;;;;;;5071456;28;20240;-62
2023/03/24 10:40:26;;;;;;;0.80;0.80;;;15.50;99.90;;;;;;5069605;28;20221;-62
2023/03/24 10:42:53;;;;;;;0.50;0.50;;;15.50;99.90;;;;;;5070709;28;20230;-63
2023/03/24 10:45:26;;;;;;;0.68;0.68;;;15.40;99.90;;;;;;5070715;28;20215;-64
2023/03/24 10:47:57;;;;;;;0.55;0.55;;;15.40;99.90;;;;;;5070158;28;20211;-61
2023/03/24 10:50:26;;;;;;;0.50;0.50;;;15.40;99.90;;;;;;5070031;28;20225;-63
2023/03/24 10:52:54;;;;;;;0.50;0.50;;;15.40;99.90;;;;;;5070823;28;20230;-61
2023/03/24 10:55:23;;;;;;;0.52;0.52;;;15.40;99.90;;;;;;5071040;28;20203;-64
2023/03/24 10:57:54;;;;;;;0.50;0.50;;;15.50;99.90;;;;;;5072690;28;20207;-62
2023/03/24 11:00:25;;;;;;;0.50;0.50;;;15.40;99.90;;;;;;5072068;28;20207;-63
2023/03/24 11:02:58;;;;;;;0.50;0.50;;;15.50;99.90;;;;;;5074806;28;20231;-62
2023/03/24 11:05:29;;;;;;;0.60;0.60;;;15.60;99.90;;;;;;5075451;28;20211;-63
2023/03/24 11:08:12;;;;;;;0.45;0.45;;;15.40;99.90;;;;;;5076460;28;20209;-62
2023/03/24 11:10:40;;;;;;;0.60;0.60;;;15.50;99.90;;;;;;5053890;28;20192;-61
2023/03/24 11:13:18;;;;;;;0.67;0.67;;;15.50;99.90;;;;;;5053003;28;20230;-63
2023/03/24 11:15:54;;;;;;;0.50;0.50;;;15.60;99.90;;;;;;5053500;28;20334;-61
2023/03/24 11:18:21;;;;;;;0.55;0.55;;;15.60;99.90;;;;;;5060950;28;20662;-63
2023/03/24 11:20:55;;;;;;;0.50;0.50;;;15.60;99.90;;;;;;5072802;28;20207;-63
2023/03/24 11:23:27;;;;;;;0.30;0.30;;;15.60;99.90;;;;;;5072706;28;20222;-63
2023/03/24 11:26:07;;;;;;;0.68;0.68;;;15.70;99.90;;;;;;5073375;28;20207;-62
2023/03/24 11:28:38;;;;;;;0.50;0.50;;;15.70;99.90;;;;;;5077753;28;20199;-63
2023/03/24 11:31:08;;;;;;;0.50;0.50;;;15.80;99.90;;;;;;5076371;28;20865;-63
2023/03/24 11:33:43;;;;;;;0.40;0.40;;;15.80;99.90;;;;;;5074403;28;20241;-62
2023/03/24 11:36:46;;;;;;;0.50;0.50;;;15.70;99.90;;;;;;5075855;28;20202;-61
2023/03/24 11:39:17;;;;;;;0.20;0.20;;;15.60;99.90;;;;;;5075118;28;20203;-63
2023/03/24 11:41:53;;;;;;;0.35;0.35;;;15.50;99.90;;;;;;5073900;28;20223;-61
2023/03/24 11:44:21;;;;;;;0.40;0.40;;;15.50;99.90;;;;;;5072894;28;20293;-62
2023/03/24 11:46:53;;;;;;;0.40;0.40;;;15.50;99.90;;;;;;5073133;28;20203;-62
2023/03/24 11:49:24;;;;;;;0.43;0.43;;;15.40;99.90;;;;;;5074512;28;20223;-61
2023/03/24 11:51:54;;;;;;;0.65;0.30;;;15.30;99.90;;;;;;5072581;28;20223;-64
2023/03/24 11:54:24;;;;;;;0.38;0.30;;;15.20;99.90;;;;;;5072304;28;20674;-62
2023/03/24 11:56:54;;;;;;;0.40;0.40;;;15.20;99.90;;;;;;5072774;28;20230;-62
2023/03/24 11:59:31;;;;;;;0.20;0.20;;;15.20;99.90;;;;;;5070588;28;20203;-62
2023/03/24 12:02:12;;;;;;;0.30;0.30;;;15.20;99.90;;;;;;5072431;28;20222;-62
2023/03/24 12:04:54;;;;;;;0.30;0.30;;;15.10;99.90;;;;;;5071702;28;20315;-62
2023/03/24 12:07:50;;;;;;;0.45;0.45;;;15.10;99.90;;;;;;5073952;28;20203;-63
2023/03/24 12:10:26;;;;;;;0.43;0.43;;;15.10;99.90;;;;;;5060768;28;20223;-62
2023/03/24 12:13:04;;;;;;;0.40;0.40;;;15.00;99.90;;;;;;5073152;28;20237;-64
2023/03/24 12:15:38;;;;;;;0.52;0.52;;;15.00;99.90;;;;;;5073626;28;20217;-62
2023/03/24 12:18:28;;;;;;;0.50;0.50;;;15.10;99.90;;;;;;5075598;28;20290;-63
2023/03/24 12:21:01;;;;;;;0.47;0.47;;;15.10;99.90;;;;;;5069874;28;20227;-62
2023/03/24 12:23:36;;;;;;;0.40;0.40;;;15.10;99.90;;;;;;5070239;28;20515;-62
2023/03/24 12:26:16;;;;;;;0.40;0.40;;;15.20;99.90;;;;;;5068581;28;20199;-61
2023/03/24 12:28:54;;;;;;;0.30;0.30;;;15.20;99.90;;;;;;5063910;28;20199;-63
2023/03/24 12:31:36;;;;;;;0.57;0.57;;;15.20;99.90;;;;;;5069086;28;20203;-61
2023/03/24 12:34:20;;;;;;;0.30;0.30;;;15.30;99.90;;;;;;5052895;28;20208;-62
2023/03/24 12:36:56;;;;;;;0.20;0.20;;;15.30;99.90;;;;;;5052445;28;20208;-63
2023/03/24 12:39:30;;;;;;;0.30;0.30;;;15.20;99.90;;;;;;5067351;28;20357;-63
2023/03/24 12:42:15;;;;;;;0.50;0.50;;;15.20;99.90;;;;;;5072527;28;20251;-63
2023/03/24 12:45:03;;;;;;;0.30;0.30;;;15.20;99.90;;;;;;5071697;28;20207;-63
2023/03/24 12:48:03;;;;;;;0.40;0.40;;;15.20;99.90;;;;;;5071499;28;20211;-61
2023/03/24 12:50:45;;;;;;;0.30;0.30;;;15.20;99.90;;;;;;5028487;28;20734;-64
2023/03/24 12:53:23;;;;;;;0.40;0.40;;;15.20;99.90;;;;;;5071079;28;20227;-62
2023/03/24 12:55:54;;;;;;;0.30;0.30;;;15.20;99.90;;;;;;5072211;28;20235;-62
2023/03/24 12:58:26;;;;;;;0.35;0.35;;;15.20;99.90;;;;;;5070945;28;20231;-62
2023/03/24 13:01:01;;;;;;;0.40;0.40;;;15.20;99.90;;;;;;5066084;28;20200;-62
2023/03/24 13:03:33;;;;;;;0.50;0.50;;;15.20;99.90;;;;;;5054497;28;20734;-62
2023/03/24 13:06:11;;;;;;;0.60;0.60;;;15.20;99.90;;;;;;5053535;28;20211;-62
2023/03/24 13:08:41;;;;;;;0.65;0.65;;;15.10;99.90;;;;;;5069757;28;20215;-62